Time;durP1;ratioP1;P1;durP2;ratioP2;P2;SDS_P1;SDS_P2;PMS_P1;PMS_P2;Temp;Humidity;BMP_temperature;BMP_pressure;BME280_temperature;BME280_humidity;BME280_pressure;Samples;Min_cycle;Max_cycle;Signal;HPM_P1;HPM_P2
2022/08/25 00:01:16;;;;;;;3.28;2.42;;;18.60;99.90;;;;;;5024299;28;20076;-81
2022/08/25 00:03:42;;;;;;;2.40;2.10;;;18.70;99.90;;;;;;5018642;28;20479;-81
2022/08/25 00:06:08;;;;;;;3.88;2.35;;;18.70;99.90;;;;;;5024037;28;20033;-81
2022/08/25 00:08:36;;;;;;;2.35;2.10;;;18.60;99.90;;;;;;5023532;28;20032;-80
2022/08/25 00:11:04;;;;;;;3.00;2.22;;;18.60;99.90;;;;;;5025548;28;20116;-81
2022/08/25 00:13:29;;;;;;;5.47;2.17;;;18.60;99.90;;;;;;5021775;28;20030;-81
2022/08/25 00:15:55;;;;;;;3.17;2.20;;;18.70;99.90;;;;;;5025347;28;20239;-81
2022/08/25 00:18:21;;;;;;;3.20;2.50;;;18.60;99.90;;;;;;5025312;28;20077;-81
2022/08/25 00:20:47;;;;;;;3.50;2.28;;;18.70;99.90;;;;;;5022991;28;20467;-81
2022/08/25 00:23:13;;;;;;;3.60;2.50;;;18.60;99.90;;;;;;5020415;28;20041;-81
2022/08/25 00:25:38;;;;;;;3.03;2.15;;;18.70;99.90;;;;;;5021901;28;20400;-81
2022/08/25 00:28:04;;;;;;;4.15;2.20;;;18.80;99.90;;;;;;5020508;28;20079;-81
2022/08/25 00:30:29;;;;;;;2.75;1.80;;;18.80;99.90;;;;;;5022524;28;20040;-81
2022/08/25 00:32:55;;;;;;;7.30;3.13;;;18.60;99.90;;;;;;5021249;28;20652;-81
2022/08/25 00:35:21;;;;;;;4.07;2.38;;;18.60;99.90;;;;;;5020730;28;20026;-81
2022/08/25 00:37:47;;;;;;;3.10;2.25;;;18.60;99.90;;;;;;5023423;28;20113;-81
2022/08/25 00:40:12;;;;;;;2.85;2.20;;;18.60;99.90;;;;;;5019348;28;20579;-81
2022/08/25 00:42:40;;;;;;;3.58;1.95;;;18.60;99.90;;;;;;5022281;28;20030;-81
2022/08/25 00:45:07;;;;;;;3.08;2.15;;;18.50;99.90;;;;;;5021498;28;20104;-81
2022/08/25 00:47:33;;;;;;;6.53;1.95;;;18.60;99.90;;;;;;5024588;28;20029;-81
2022/08/25 00:50:01;;;;;;;1.98;1.77;;;18.50;99.90;;;;;;5023494;28;20071;-81
2022/08/25 00:52:32;;;;;;;3.40;2.38;;;18.50;99.90;;;;;;5021818;28;20033;-81
2022/08/25 00:55:04;;;;;;;2.72;1.80;;;18.40;99.90;;;;;;5022386;28;20480;-81
2022/08/25 00:57:36;;;;;;;1.98;1.77;;;18.40;99.90;;;;;;5023976;28;20057;-81
2022/08/25 01:00:33;;;;;;;3.03;2.20;;;18.30;99.90;;;;;;5022180;28;20022;-81
2022/08/25 01:02:59;;;;;;;2.67;2.17;;;18.30;99.90;;;;;;5010564;28;20033;-81
2022/08/25 01:05:27;;;;;;;2.88;2.15;;;18.20;99.90;;;;;;5027894;28;20026;-81
2022/08/25 01:07:53;;;;;;;3.63;2.00;;;18.20;99.90;;;;;;5028012;28;20075;-81
2022/08/25 01:10:20;;;;;;;2.80;2.47;;;18.20;99.90;;;;;;5026245;28;20067;-81
2022/08/25 01:12:47;;;;;;;6.53;2.90;;;18.10;99.90;;;;;;5023370;28;20025;-82
2022/08/25 01:15:13;;;;;;;3.40;2.20;;;18.10;99.90;;;;;;5023640;28;20493;-81
2022/08/25 01:17:49;;;;;;;3.53;2.60;;;18.10;99.90;;;;;;5024721;28;20391;-81
2022/08/25 01:20:18;;;;;;;3.13;2.15;;;18.10;99.90;;;;;;5024037;28;20028;-81
2022/08/25 01:22:44;;;;;;;3.60;2.53;;;18.10;99.90;;;;;;5022397;28;20025;-81
2022/08/25 01:25:41;;;;;;;5.70;2.35;;;18.10;99.90;;;;;;5026185;28;20021;-81
2022/08/25 01:28:10;;;;;;;4.60;2.35;;;18.10;99.90;;;;;;5025603;28;20041;-81
2022/08/25 01:30:36;;;;;;;10.57;3.42;;;18.10;99.90;;;;;;5025175;28;20034;-81
2022/08/25 01:33:07;;;;;;;3.75;2.70;;;18.10;99.90;;;;;;5020484;28;20052;-82
2022/08/25 01:35:34;;;;;;;2.42;2.15;;;18.20;99.90;;;;;;5025103;28;20044;-81
2022/08/25 01:38:00;;;;;;;4.97;2.70;;;18.10;99.90;;;;;;5027577;28;20471;-82
2022/08/25 01:40:26;;;;;;;2.35;2.00;;;18.10;99.90;;;;;;5025367;28;20025;-81
2022/08/25 01:43:01;;;;;;;2.97;2.00;;;18.10;99.90;;;;;;5023325;28;20079;-82
2022/08/25 01:45:26;;;;;;;7.07;2.90;;;18.10;99.90;;;;;;5027068;28;20072;-81
2022/08/25 01:47:52;;;;;;;4.60;2.50;;;18.10;99.90;;;;;;5024661;28;20056;-82
2022/08/25 01:50:18;;;;;;;2.75;2.00;;;18.00;99.90;;;;;;5025064;28;20056;-81
2022/08/25 01:53:14;;;;;;;3.47;2.65;;;17.90;99.90;;;;;;5023808;28;20080;-82
2022/08/25 01:55:52;;;;;;;3.80;2.40;;;18.00;99.90;;;;;;5024642;28;20591;-81
2022/08/25 01:58:24;;;;;;;4.65;2.22;;;18.00;99.90;;;;;;5025491;28;20040;-82
2022/08/25 02:00:50;;;;;;;;;;;18.00;99.90;;;;;;5023390;28;20056;-82
2022/08/25 02:03:19;;;;;;;3.95;2.58;;;18.10;99.90;;;;;;5024041;28;19952;-82
2022/08/25 02:05:45;;;;;;;3.35;2.03;;;18.00;99.90;;;;;;5025875;28;20104;-81
2022/08/25 02:08:11;;;;;;;8.30;3.08;;;18.10;99.90;;;;;;5023933;28;20065;-81
2022/08/25 02:10:38;;;;;;;4.57;2.30;;;18.20;99.90;;;;;;5022858;28;20053;-81
2022/08/25 02:13:04;;;;;;;4.50;2.45;;;18.00;99.90;;;;;;5024220;28;20107;-82
2022/08/25 02:15:30;;;;;;;3.10;2.22;;;18.10;99.90;;;;;;5023497;28;20241;-82
2022/08/25 02:17:56;;;;;;;3.08;2.15;;;18.10;99.90;;;;;;5026785;28;20468;-81
2022/08/25 02:20:22;;;;;;;3.08;2.20;;;18.00;99.90;;;;;;5026660;28;20499;-82
2022/08/25 02:22:50;;;;;;;2.38;2.13;;;18.00;99.90;;;;;;5022221;28;20092;-82
2022/08/25 02:25:15;;;;;;;3.42;2.55;;;18.00;99.90;;;;;;5021759;28;20026;-82
2022/08/25 02:27:41;;;;;;;5.63;2.80;;;17.90;99.90;;;;;;5023821;28;20030;-82
2022/08/25 02:30:07;;;;;;;5.05;2.25;;;17.80;99.90;;;;;;5027521;28;20685;-82
2022/08/25 02:32:33;;;;;;;2.88;1.63;;;17.90;99.90;;;;;;5023101;28;20053;-82
2022/08/25 02:34:58;;;;;;;4.78;2.70;;;18.00;99.90;;;;;;5024146;28;20021;-82
2022/08/25 02:37:24;;;;;;;3.38;2.15;;;17.90;99.90;;;;;;5022946;28;20031;-82
2022/08/25 02:39:49;;;;;;;3.58;2.55;;;17.80;99.90;;;;;;5024631;28;20491;-82
2022/08/25 02:42:14;;;;;;;2.38;2.15;;;17.80;99.90;;;;;;5023007;28;20026;-81
2022/08/25 02:44:40;;;;;;;3.33;2.10;;;17.80;99.90;;;;;;5025523;28;20211;-82
2022/08/25 02:47:06;;;;;;;6.53;2.60;;;17.80;99.90;;;;;;5023591;28;20030;-82
2022/08/25 02:49:32;;;;;;;4.70;2.33;;;17.70;99.90;;;;;;5026271;28;20124;-82
2022/08/25 02:51:59;;;;;;;3.25;2.35;;;17.70;99.90;;;;;;5025880;28;20029;-82
2022/08/25 02:54:25;;;;;;;3.05;2.40;;;17.70;99.90;;;;;;5023428;28;20029;-82
2022/08/25 02:56:54;;;;;;;5.38;2.83;;;17.80;99.90;;;;;;5019505;28;20037;-81
2022/08/25 02:59:19;;;;;;;3.97;2.25;;;17.70;99.90;;;;;;5021440;28;20455;-82
2022/08/25 03:01:47;;;;;;;4.88;2.92;;;17.70;99.90;;;;;;5024393;28;20067;-81
2022/08/25 03:04:13;;;;;;;4.57;2.40;;;17.70;99.90;;;;;;5020171;28;20029;-81
2022/08/25 03:06:41;;;;;;;4.35;2.70;;;17.70;99.90;;;;;;5022403;28;20100;-81
2022/08/25 03:09:07;;;;;;;3.50;2.60;;;17.70;99.90;;;;;;5023703;28;20038;-81
2022/08/25 03:11:33;;;;;;;3.58;2.30;;;17.60;99.90;;;;;;5022755;28;20660;-82
2022/08/25 03:13:59;;;;;;;6.45;3.15;;;17.60;99.90;;;;;;5023896;28;20053;-82
2022/08/25 03:16:25;;;;;;;8.75;2.90;;;17.60;99.90;;;;;;5023639;28;20252;-82
2022/08/25 03:18:50;;;;;;;3.15;2.55;;;17.60;99.90;;;;;;5020732;28;20037;-82
2022/08/25 03:21:16;;;;;;;4.22;2.67;;;17.60;99.90;;;;;;5022496;28;20420;-81
2022/08/25 03:23:42;;;;;;;4.18;2.85;;;17.50;99.90;;;;;;5024949;28;20025;-81
2022/08/25 03:28:54;;;;;;;4.32;2.83;;;17.40;99.90;;;;;;5021314;28;20056;-82
2022/08/25 03:31:20;;;;;;;3.47;2.63;;;17.40;99.90;;;;;;5025384;28;20056;-82
2022/08/25 03:33:46;;;;;;;7.15;2.88;;;17.40;99.90;;;;;;5024357;28;20033;-82
2022/08/25 03:36:11;;;;;;;2.83;2.50;;;17.40;99.90;;;;;;5025849;28;20048;-81
2022/08/25 03:38:37;;;;;;;5.20;2.70;;;17.50;99.90;;;;;;5024365;28;20033;-82
2022/08/25 03:41:21;;;;;;;5.30;3.17;;;17.60;99.90;;;;;;5021655;28;20424;-82
2022/08/25 03:43:48;;;;;;;7.25;3.33;;;17.70;99.90;;;;;;5023351;28;20465;-82
2022/08/25 03:46:22;;;;;;;4.05;2.92;;;17.90;99.90;;;;;;5026468;28;20038;-81
2022/08/25 03:48:48;;;;;;;5.05;3.03;;;18.00;99.90;;;;;;5021683;28;20085;-81
2022/08/25 03:51:26;;;;;;;5.57;3.30;;;18.10;99.90;;;;;;5022604;28;20040;-82
2022/08/25 03:53:52;;;;;;;4.75;2.88;;;18.20;99.90;;;;;;5021432;28;22403;-82
2022/08/25 03:56:18;;;;;;;8.63;3.72;;;18.30;99.90;;;;;;5025586;28;20044;-81
2022/08/25 03:58:44;;;;;;;6.90;3.47;;;18.30;99.90;;;;;;5021724;28;20029;-81
2022/08/25 04:01:10;;;;;;;6.65;3.65;;;18.40;99.90;;;;;;5025471;28;20033;-81
2022/08/25 04:03:35;;;;;;;6.78;4.05;;;18.40;99.90;;;;;;5020562;28;20529;-81
2022/08/25 04:06:04;;;;;;;6.50;3.60;;;18.50;99.90;;;;;;5024038;28;20117;-81
2022/08/25 04:08:29;;;;;;;8.30;4.28;;;18.60;99.90;;;;;;5020780;28;20452;-81
2022/08/25 04:10:55;;;;;;;9.27;4.60;;;18.70;99.90;;;;;;5022402;28;20034;-82
2022/08/25 04:13:21;;;;;;;7.82;4.43;;;18.70;99.90;;;;;;5021726;28;20021;-81
2022/08/25 04:15:47;;;;;;;5.80;3.88;;;18.70;99.90;;;;;;5020988;28;20120;-80
2022/08/25 04:18:12;;;;;;;6.90;3.60;;;18.80;99.90;;;;;;5024213;28;20556;-82
2022/08/25 04:20:39;;;;;;;7.93;3.88;;;18.70;99.90;;;;;;5021704;28;20033;-81
2022/08/25 04:23:05;;;;;;;7.32;3.35;;;18.80;99.90;;;;;;5023478;28;20084;-80
2022/08/25 04:25:30;;;;;;;6.70;4.32;;;18.70;99.90;;;;;;5024394;28;20025;-81
2022/08/25 04:27:56;;;;;;;6.32;3.17;;;18.70;99.90;;;;;;5021160;28;20402;-80
2022/08/25 04:30:22;;;;;;;6.85;3.85;;;18.80;99.90;;;;;;5020914;28;20046;-80
2022/08/25 04:32:48;;;;;;;5.97;3.25;;;19.00;99.90;;;;;;5024254;28;20045;-80
2022/08/25 04:35:14;;;;;;;6.15;3.45;;;19.00;99.90;;;;;;5019642;28;20144;-80
2022/08/25 04:37:39;;;;;;;9.05;3.63;;;19.00;99.90;;;;;;5020256;28;20037;-81
2022/08/25 04:40:06;;;;;;;7.35;3.58;;;19.00;99.90;;;;;;5027015;28;20030;-81
2022/08/25 04:42:31;;;;;;;7.10;4.53;;;18.90;99.90;;;;;;5026608;28;20079;-81
2022/08/25 04:44:57;;;;;;;6.35;3.85;;;18.80;99.90;;;;;;5025909;28;20026;-80
2022/08/25 04:47:23;;;;;;;11.60;4.03;;;18.90;99.90;;;;;;5023715;28;20044;-80
2022/08/25 04:49:48;;;;;;;5.25;3.53;;;19.00;99.90;;;;;;5026838;28;20087;-81
2022/08/25 04:52:14;;;;;;;8.10;3.72;;;19.10;99.90;;;;;;5023899;28;20025;-81
2022/08/25 04:54:39;;;;;;;7.22;3.20;;;19.20;99.90;;;;;;5033594;28;20037;-80
2022/08/25 04:57:05;;;;;;;7.65;3.90;;;19.20;99.90;;;;;;5031365;28;20499;-80
2022/08/25 04:59:31;;;;;;;6.05;3.83;;;19.20;99.90;;;;;;5027052;28;20389;-81
2022/08/25 05:02:00;;;;;;;5.60;3.38;;;19.30;99.90;;;;;;5027091;28;20104;-81
2022/08/25 05:04:26;;;;;;;5.10;3.38;;;19.30;99.90;;;;;;5024879;28;20037;-80
2022/08/25 05:06:51;;;;;;;6.95;4.10;;;19.40;99.90;;;;;;5026561;28;20061;-80
2022/08/25 05:09:17;;;;;;;7.97;3.45;;;19.40;99.90;;;;;;5024078;28;20026;-81
2022/08/25 05:11:42;;;;;;;5.22;3.60;;;19.50;99.90;;;;;;5026471;28;20255;-80
2022/08/25 05:14:10;;;;;;;7.72;3.60;;;19.50;99.90;;;;;;5027153;28;20025;-80
2022/08/25 05:16:37;;;;;;;5.22;3.30;;;19.40;99.90;;;;;;5022435;28;20055;-81
2022/08/25 05:19:03;;;;;;;7.05;3.67;;;19.40;99.90;;;;;;5023399;28;20083;-81
2022/08/25 05:21:29;;;;;;;6.40;3.92;;;19.40;99.90;;;;;;5028839;28;20022;-81
2022/08/25 05:23:56;;;;;;;5.43;3.47;;;19.50;99.90;;;;;;5021531;28;20575;-78
2022/08/25 05:26:23;;;;;;;5.45;3.55;;;19.60;99.90;;;;;;5021288;28;20524;-78
2022/08/25 05:28:50;;;;;;;7.10;3.72;;;19.60;99.90;;;;;;5020903;28;20026;-89
2022/08/25 05:31:17;;;;;;;6.60;3.47;;;19.70;99.90;;;;;;5025109;28;20053;-77
2022/08/25 05:33:43;;;;;;;7.97;4.28;;;19.80;99.90;;;;;;5015676;28;20041;-77
2022/08/25 05:36:10;;;;;;;6.95;3.83;;;19.90;99.90;;;;;;5012821;28;20206;-77
2022/08/25 05:38:36;;;;;;;12.82;4.05;;;19.80;99.90;;;;;;5009631;28;20029;-78
2022/08/25 05:41:05;;;;;;;7.97;4.28;;;19.90;99.90;;;;;;5013779;28;20029;-76
2022/08/25 05:43:31;;;;;;;6.25;4.05;;;19.90;99.90;;;;;;5017997;28;20056;-80
2022/08/25 05:45:58;;;;;;;6.53;4.10;;;19.90;99.90;;;;;;5017888;28;20109;-79
2022/08/25 05:48:24;;;;;;;6.35;3.67;;;20.00;99.90;;;;;;5020337;28;20108;-79
2022/08/25 05:50:58;;;;;;;7.38;3.72;;;19.90;99.90;;;;;;5023962;28;20116;-79
2022/08/25 05:53:25;;;;;;;5.85;3.88;;;20.00;99.90;;;;;;5016748;28;20037;-80
2022/08/25 05:55:52;;;;;;;5.88;3.83;;;20.00;99.90;;;;;;5021978;28;20503;-80
2022/08/25 05:58:18;;;;;;;7.40;3.83;;;20.10;99.90;;;;;;5019399;28;20026;-80
2022/08/25 06:00:44;;;;;;;8.13;4.40;;;20.20;99.90;;;;;;5024364;28;20160;-78
2022/08/25 06:03:10;;;;;;;7.40;3.53;;;20.20;99.90;;;;;;5017608;28;20519;-78
2022/08/25 06:05:35;;;;;;;8.90;4.53;;;20.10;99.90;;;;;;5025338;28;20029;-78
2022/08/25 06:08:02;;;;;;;7.78;3.97;;;20.10;99.90;;;;;;5016336;28;20400;-79
2022/08/25 06:10:27;;;;;;;9.95;5.30;;;20.20;99.90;;;;;;5017054;28;20033;-79
2022/08/25 06:12:54;;;;;;;6.75;3.75;;;20.10;99.90;;;;;;5018257;28;20034;-80
2022/08/25 06:15:22;;;;;;;6.68;4.10;;;20.20;99.90;;;;;;5025353;28;20030;-77
2022/08/25 06:18:01;;;;;;;6.03;3.58;;;20.20;99.90;;;;;;5021060;28;20105;-79
2022/08/25 06:20:29;;;;;;;6.43;4.03;;;20.30;99.90;;;;;;5021832;28;20052;-78
2022/08/25 06:22:56;;;;;;;7.18;4.45;;;20.50;99.90;;;;;;5021112;28;20041;-78
2022/08/25 06:25:23;;;;;;;10.35;4.35;;;20.50;99.90;;;;;;5017567;28;20064;-80
2022/08/25 06:27:49;;;;;;;5.40;3.35;;;20.60;99.90;;;;;;5021949;28;20056;-80
2022/08/25 06:30:19;;;;;;;6.75;4.07;;;20.60;99.90;;;;;;5025090;28;20570;-78
2022/08/25 06:32:45;;;;;;;10.52;3.95;;;20.60;99.90;;;;;;5022721;28;20496;-79
2022/08/25 06:35:13;;;;;;;11.65;5.47;;;20.70;99.90;;;;;;5024552;28;20096;-79
2022/08/25 06:37:41;;;;;;;7.57;3.75;;;20.50;99.90;;;;;;5022828;28;20120;-78
2022/08/25 06:40:07;;;;;;;6.88;4.13;;;20.50;99.90;;;;;;5019629;28;20479;-79
2022/08/25 06:42:33;;;;;;;6.53;3.95;;;20.60;99.90;;;;;;5022313;28;20021;-80
2022/08/25 06:44:59;;;;;;;9.13;4.80;;;20.70;99.90;;;;;;5021509;28;20574;-77
2022/08/25 06:47:24;;;;;;;9.20;3.70;;;20.80;99.90;;;;;;5023340;28;20092;-80
2022/08/25 06:49:50;;;;;;;9.75;4.50;;;21.00;99.90;;;;;;5018994;28;20107;-77
2022/08/25 06:52:15;;;;;;;6.93;3.75;;;20.80;99.90;;;;;;5024504;28;20392;-79
2022/08/25 06:54:41;;;;;;;9.95;4.75;;;20.80;99.90;;;;;;5022900;28;20041;-79
2022/08/25 06:57:07;;;;;;;8.32;4.28;;;21.00;99.90;;;;;;5021038;28;20025;-80
2022/08/25 06:59:33;;;;;;;8.55;4.80;;;21.10;99.90;;;;;;5025002;28;20029;-81
2022/08/25 07:01:59;;;;;;;7.78;4.65;;;21.20;99.90;;;;;;5013944;28;20021;-79
2022/08/25 07:04:24;;;;;;;16.45;5.35;;;21.20;99.90;;;;;;5021118;28;20496;-81
2022/08/25 07:06:50;;;;;;;12.05;4.57;;;21.20;99.90;;;;;;5017596;28;20025;-81
2022/08/25 07:09:16;;;;;;;7.72;4.70;;;21.30;99.90;;;;;;5023521;28;20029;-76
2022/08/25 07:12:04;;;;;;;8.75;4.57;;;21.40;99.90;;;;;;5020573;28;20764;-82
2022/08/25 07:14:30;;;;;;;10.52;4.95;;;21.10;99.90;;;;;;5023863;28;20057;-77
2022/08/25 07:16:55;;;;;;;9.05;4.78;;;21.20;99.90;;;;;;5023581;28;20029;-84
2022/08/25 07:19:21;;;;;;;10.10;5.32;;;21.40;99.90;;;;;;5008807;28;20892;-79
2022/08/25 07:21:51;;;;;;;12.23;6.22;;;21.50;99.90;;;;;;5022099;28;20029;-79
2022/08/25 07:24:17;;;;;;;8.43;4.43;;;21.50;99.90;;;;;;5008484;28;20381;-79
2022/08/25 07:26:45;;;;;;;7.85;4.30;;;21.50;99.90;;;;;;5020244;28;20037;-79
2022/08/25 07:29:23;;;;;;;8.02;4.22;;;21.70;99.90;;;;;;5019545;28;20647;-79
2022/08/25 07:31:49;;;;;;;10.40;4.82;;;22.00;99.90;;;;;;5020258;28;20488;-79
2022/08/25 07:36:59;;;;;;;11.43;4.78;;;22.10;99.90;;;;;;5021811;28;20060;-79
2022/08/25 07:39:25;;;;;;;8.25;5.03;;;22.20;99.90;;;;;;5023105;28;20517;-79
2022/08/25 07:41:52;;;;;;;9.05;5.00;;;22.20;99.90;;;;;;5018888;28;20032;-79
2022/08/25 07:44:17;;;;;;;11.20;5.32;;;22.20;99.90;;;;;;5024522;28;20022;-79
2022/08/25 07:46:43;;;;;;;10.60;4.65;;;22.30;99.90;;;;;;5021842;28;20028;-79
2022/08/25 07:49:09;;;;;;;10.63;4.35;;;22.50;99.90;;;;;;5024713;28;20048;-79
2022/08/25 07:51:35;;;;;;;9.95;4.93;;;22.70;99.90;;;;;;5021349;28;20044;-79
2022/08/25 07:54:00;;;;;;;10.48;5.07;;;22.70;99.90;;;;;;5019826;28;20452;-79
2022/08/25 07:56:26;;;;;;;8.57;4.72;;;22.50;99.90;;;;;;5018329;28;20037;-79
2022/08/25 07:58:51;;;;;;;8.02;4.68;;;22.50;99.90;;;;;;5014562;28;20036;-79
2022/08/25 08:01:19;;;;;;;7.72;4.93;;;22.50;99.90;;;;;;5015456;28;20033;-79
2022/08/25 08:03:46;;;;;;;10.10;5.13;;;22.60;99.90;;;;;;5023618;28;20029;-80
2022/08/25 08:06:16;;;;;;;11.27;5.25;;;22.80;99.90;;;;;;5014089;28;20033;-79
2022/08/25 08:08:44;;;;;;;9.60;5.35;;;22.80;99.90;;;;;;5024887;28;20041;-79
2022/08/25 08:11:20;;;;;;;9.07;4.72;;;22.90;99.90;;;;;;5021448;28;20065;-79
2022/08/25 08:13:46;;;;;;;11.45;6.10;;;22.80;99.90;;;;;;5022226;28;20041;-79
2022/08/25 08:16:14;;;;;;;10.15;5.07;;;22.80;99.90;;;;;;5024481;28;20061;-79
2022/08/25 08:18:41;;;;;;;8.48;4.55;;;23.00;99.90;;;;;;5024108;28;20037;-79
2022/08/25 08:21:11;;;;;;;8.82;4.75;;;23.20;99.90;;;;;;5020059;28;20041;-76
2022/08/25 08:23:37;;;;;;;11.20;4.93;;;23.20;99.90;;;;;;5024924;28;20083;-78
2022/08/25 08:26:05;;;;;;;10.60;5.22;;;23.20;99.90;;;;;;5014661;28;20038;-79
2022/08/25 08:28:31;;;;;;;9.43;5.25;;;23.20;99.90;;;;;;5017752;28;20092;-79
2022/08/25 08:30:57;;;;;;;11.10;4.60;;;23.40;99.90;;;;;;5022533;28;20124;-79
2022/08/25 08:33:23;;;;;;;11.32;5.10;;;23.50;99.90;;;;;;5021018;28;20038;-79
2022/08/25 08:36:10;;;;;;;10.70;5.00;;;23.50;99.90;;;;;;5017230;28;20043;-79
2022/08/25 08:38:37;;;;;;;13.88;5.45;;;23.70;99.90;;;;;;5019457;28;20109;-80
2022/08/25 08:44:23;;;;;;;11.82;4.82;;;24.00;99.90;;;;;;5020388;28;20119;-80
2022/08/25 08:47:28;;;;;;;8.70;4.78;;;24.30;99.90;;;;;;5018670;28;20030;-77
2022/08/25 08:50:06;;;;;;;9.90;4.75;;;24.20;99.90;;;;;;5024604;28;20042;-79
2022/08/25 08:52:42;;;;;;;6.93;4.35;;;24.00;99.90;;;;;;5024708;28;20072;-79
2022/08/25 08:55:22;;;;;;;7.90;4.78;;;23.80;99.90;;;;;;5017280;28;20156;-79
2022/08/25 08:57:50;;;;;;;6.30;4.38;;;24.00;99.90;;;;;;5025419;28;20037;-78
2022/08/25 09:00:16;;;;;;;6.05;4.13;;;24.30;99.90;;;;;;5021909;28;20087;-80
2022/08/25 09:03:03;;;;;;;6.57;3.95;;;24.30;99.90;;;;;;5020605;28;20022;-80
2022/08/25 09:05:34;;;;;;;5.10;3.83;;;24.50;99.90;;;;;;5017139;28;20030;-80
2022/08/25 09:08:05;;;;;;;6.45;4.00;;;24.60;99.90;;;;;;5020473;28;20041;-80
2022/08/25 09:10:44;;;;;;;5.88;3.80;;;24.30;99.90;;;;;;5018306;28;20040;-80
2022/08/25 09:13:37;;;;;;;6.28;3.83;;;24.40;99.90;;;;;;5023407;28;20100;-80
2022/08/25 09:19:27;;;;;;;5.80;4.10;;;24.40;99.90;;;;;;5024654;28;20033;-80
2022/08/25 09:22:00;;;;;;;6.65;3.83;;;24.20;99.90;;;;;;5028474;28;20032;-80
2022/08/25 09:24:43;;;;;;;6.20;4.25;;;24.30;99.90;;;;;;5022239;28;20219;-83
2022/08/25 09:27:34;;;;;;;5.10;3.88;;;24.60;99.90;;;;;;5022356;28;20464;-80
2022/08/25 09:30:08;;;;;;;4.10;3.43;;;24.70;99.90;;;;;;4988819;28;975044;-79
2022/08/25 09:32:39;;;;;;;9.00;4.00;;;24.90;99.90;;;;;;5020131;28;20033;-79
2022/08/25 09:35:15;;;;;;;4.43;3.47;;;24.70;99.90;;;;;;5025605;28;20029;-80
2022/08/25 09:37:41;;;;;;;6.85;3.60;;;24.90;99.90;;;;;;5023918;28;20112;-80
2022/08/25 09:40:07;;;;;;;7.03;3.30;;;24.90;99.90;;;;;;5027223;28;20025;-80
2022/08/25 09:42:54;;;;;;;5.45;3.72;;;24.90;99.90;;;;;;5025409;28;20135;-82
2022/08/25 09:45:42;;;;;;;5.40;4.00;;;24.70;99.90;;;;;;5025498;28;20037;-79
2022/08/25 09:48:36;;;;;;;6.93;4.18;;;24.50;99.90;;;;;;5017090;28;20037;-79
2022/08/25 09:51:27;;;;;;;5.13;3.80;;;24.80;99.90;;;;;;5015048;28;20855;-78
2022/08/25 09:54:14;;;;;;;4.55;3.38;;;24.90;99.90;;;;;;5019966;28;20112;-78
2022/08/25 09:56:54;;;;;;;4.90;3.63;;;25.10;99.90;;;;;;5023957;28;20033;-78
2022/08/25 09:59:34;;;;;;;5.80;4.05;;;25.20;99.90;;;;;;5029152;28;20128;-79
2022/08/25 10:02:03;;;;;;;5.45;3.75;;;25.00;99.90;;;;;;5016997;28;20056;-80
2022/08/25 10:04:35;;;;;;;5.93;4.22;;;24.80;99.90;;;;;;5017795;28;20033;-79
2022/08/25 10:07:03;;;;;;;5.97;3.67;;;24.90;99.90;;;;;;5017689;28;20017;-80
2022/08/25 10:09:37;;;;;;;6.28;4.20;;;25.10;99.90;;;;;;5020422;28;20052;-79
2022/08/25 10:12:27;;;;;;;6.03;3.70;;;25.40;99.90;;;;;;5022214;28;20128;-78
2022/08/25 10:14:53;;;;;;;4.53;3.08;;;25.80;99.90;;;;;;5015076;28;20029;-78
2022/08/25 10:17:27;;;;;;;6.53;3.42;;;25.60;99.90;;;;;;5021628;28;20026;-78
2022/08/25 10:20:16;;;;;;;5.47;3.40;;;25.30;99.90;;;;;;5016547;28;20028;-78
2022/08/25 10:22:43;;;;;;;4.95;3.40;;;24.90;99.90;;;;;;5028799;28;20021;-78
2022/08/25 10:25:11;;;;;;;7.22;2.95;;;24.70;99.90;;;;;;5022091;28;20092;-80
2022/08/25 10:28:02;;;;;;;5.40;3.13;;;25.00;99.90;;;;;;5024271;28;20033;-80
2022/08/25 10:30:55;;;;;;;3.92;3.25;;;24.90;99.90;;;;;;5020542;28;20060;-80
2022/08/25 10:33:46;;;;;;;5.18;3.05;;;25.10;99.90;;;;;;5021092;28;20053;-79
2022/08/25 10:36:25;;;;;;;5.80;3.63;;;25.80;99.90;;;;;;5018988;28;20100;-77
2022/08/25 10:38:56;;;;;;;5.05;3.55;;;25.80;99.90;;;;;;5019955;28;20029;-80
2022/08/25 10:41:58;;;;;;;3.40;2.80;;;25.80;99.90;;;;;;5011150;28;20030;-80
2022/08/25 10:47:47;;;;;;;5.60;2.88;;;26.80;99.90;;;;;;5006150;28;21823;-76
2022/08/25 10:50:33;;;;;;;4.05;2.67;;;26.50;99.90;;;;;;5010278;28;20056;-77
2022/08/25 10:53:28;;;;;;;4.38;2.60;;;26.10;99.90;;;;;;5019670;28;20065;-77
2022/08/25 10:56:19;;;;;;;5.45;3.15;;;26.00;99.90;;;;;;4981604;28;20491;-76
2022/08/25 10:59:22;;;;;;;5.38;3.33;;;26.10;99.90;;;;;;5026168;28;20045;-77
2022/08/25 11:01:57;;;;;;;4.55;3.00;;;26.80;99.90;;;;;;5017800;28;20396;-77
2022/08/25 11:04:42;;;;;;;7.68;3.70;;;26.80;99.90;;;;;;5020576;28;20068;-77
2022/08/25 11:07:10;;;;;;;4.28;2.78;;;26.90;99.90;;;;;;5023317;28;20032;-77
2022/08/25 11:09:47;;;;;;;5.07;3.08;;;26.90;99.90;;;;;;5026208;28;20029;-77
2022/08/25 11:12:28;;;;;;;5.72;3.00;;;26.10;99.90;;;;;;5028241;28;20029;-76
2022/08/25 11:14:59;;;;;;;6.55;2.95;;;27.20;99.90;;;;;;5025469;28;20025;-77
2022/08/25 11:17:38;;;;;;;4.00;2.97;;;27.80;97.70;;;;;;5024832;28;20069;-76
2022/08/25 11:20:12;;;;;;;6.10;3.05;;;29.00;94.60;;;;;;5020646;28;20053;-77
2022/08/25 11:22:43;;;;;;;4.85;3.00;;;27.90;95.00;;;;;;5024176;28;20030;-77
2022/08/25 11:25:28;;;;;;;3.58;2.83;;;27.20;97.80;;;;;;5025291;28;20431;-76
2022/08/25 11:28:14;;;;;;;5.18;3.05;;;28.80;92.50;;;;;;5024596;28;20116;-77
2022/08/25 11:30:40;;;;;;;4.57;2.85;;;28.20;93.40;;;;;;5022419;28;20511;-76
2022/08/25 11:33:10;;;;;;;5.18;2.83;;;27.90;93.30;;;;;;5021576;28;20041;-75
2022/08/25 11:35:40;;;;;;;4.45;2.60;;;27.20;96.30;;;;;;5014811;28;20033;-76
2022/08/25 11:38:22;;;;;;;3.23;2.60;;;26.70;99.40;;;;;;5022904;28;20041;-75
2022/08/25 11:41:17;;;;;;;3.50;2.63;;;26.50;99.70;;;;;;5027376;28;20326;-76
2022/08/25 11:44:10;;;;;;;3.28;2.85;;;28.80;93.10;;;;;;5022798;28;20029;-76
2022/08/25 11:46:48;;;;;;;3.50;2.85;;;28.60;91.40;;;;;;5022631;28;20053;-76
2022/08/25 11:49:43;;;;;;;2.53;2.33;;;28.20;94.30;;;;;;5023023;28;20488;-76
2022/08/25 11:52:34;;;;;;;2.90;2.60;;;29.50;86.30;;;;;;5027302;28;20048;-76
2022/08/25 11:55:22;;;;;;;4.07;2.75;;;29.10;87.40;;;;;;5024898;28;20022;-76
2022/08/25 11:57:50;;;;;;;3.10;2.33;;;28.60;90.40;;;;;;5023224;28;20033;-76
2022/08/25 12:00:37;;;;;;;5.10;3.20;;;28.90;90.30;;;;;;5025087;28;20021;-76
2022/08/25 12:03:31;;;;;;;5.90;2.95;;;30.60;83.50;;;;;;5023802;28;20103;-77
2022/08/25 12:06:21;;;;;;;5.47;2.78;;;30.30;85.10;;;;;;5010363;28;20381;-77
2022/08/25 12:08:47;;;;;;;6.07;2.80;;;29.80;84.60;;;;;;4982928;28;20041;-75
2022/08/25 12:11:44;;;;;;;5.28;2.95;;;29.30;85.30;;;;;;5023267;28;20427;-75
2022/08/25 12:14:12;;;;;;;6.18;2.85;;;29.90;84.20;;;;;;5024030;28;20030;-75
2022/08/25 12:17:03;;;;;;;2.95;1.95;;;32.90;73.00;;;;;;5024195;28;20031;-76
2022/08/25 12:19:48;;;;;;;5.40;2.97;;;34.00;65.10;;;;;;5022923;28;20154;-77
2022/08/25 12:22:17;;;;;;;3.33;2.33;;;35.70;63.70;;;;;;5014999;28;20026;-76
2022/08/25 12:24:43;;;;;;;2.63;2.35;;;33.10;64.40;;;;;;5024080;28;20117;-76
2022/08/25 12:27:30;;;;;;;7.28;2.90;;;29.40;78.50;;;;;;5019515;28;20120;-75
2022/08/25 12:30:04;;;;;;;2.80;2.50;;;28.90;86.60;;;;;;5019917;28;20277;-76
2022/08/25 12:33:15;;;;;;;2.85;2.55;;;34.70;61.80;;;;;;5027419;28;20090;-76
2022/08/25 12:36:01;;;;;;;3.13;2.40;;;35.40;56.70;;;;;;5024710;28;20060;-76
2022/08/25 12:38:43;;;;;;;2.63;2.33;;;36.20;53.80;;;;;;5031478;28;20295;-76
2022/08/25 12:41:12;;;;;;;9.63;2.53;;;36.60;53.30;;;;;;5035487;28;20350;-76
2022/08/25 12:43:43;;;;;;;8.55;3.47;;;35.50;53.80;;;;;;5036774;28;20124;-76
2022/08/25 12:46:28;;;;;;;;;;;32.00;63.70;;;;;;5018976;28;20487;-75
2022/08/25 12:49:01;;;;;;;3.50;2.58;;;29.10;77.90;;;;;;5024624;28;19909;-75
2022/08/25 12:51:39;;;;;;;4.93;2.70;;;27.40;89.50;;;;;;5024639;28;20036;-75
2022/08/25 12:54:27;;;;;;;3.20;2.60;;;26.60;93.60;;;;;;5026942;28;20025;-77
2022/08/25 12:56:57;;;;;;;3.78;2.92;;;26.30;95.50;;;;;;5023102;28;20026;-75
2022/08/25 12:59:35;;;;;;;2.60;2.23;;;27.30;94.50;;;;;;5026253;28;20037;-75
2022/08/25 13:02:37;;;;;;;3.47;2.33;;;30.90;77.40;;;;;;5027163;28;20082;-75
2022/08/25 13:05:25;;;;;;;2.70;2.38;;;33.70;63.80;;;;;;5025990;28;20026;-75
2022/08/25 13:08:08;;;;;;;5.57;3.03;;;32.00;67.40;;;;;;5018550;28;20093;-75
2022/08/25 13:10:41;;;;;;;3.88;2.65;;;34.00;61.30;;;;;;5026732;28;20030;-75
2022/08/25 13:13:22;;;;;;;4.05;2.40;;;36.00;56.10;;;;;;5026033;28;20075;-75
2022/08/25 13:15:59;;;;;;;3.38;2.90;;;35.80;55.50;;;;;;5028555;28;20040;-74
2022/08/25 13:18:31;;;;;;;3.67;2.47;;;36.50;52.40;;;;;;5026460;28;20081;-80
2022/08/25 13:21:18;;;;;;;5.72;2.42;;;33.10;59.60;;;;;;5027861;28;20032;-81
2022/08/25 13:23:49;;;;;;;4.35;3.05;;;32.80;61.80;;;;;;5018365;28;20555;-82